Time,TemperatureF,DewpointF,PressureIn,WindDirection,WindDirectionDegrees,WindSpeedMPH,WindSpeedGustMPH,Humidity,HourlyPrecipIn,Conditions,Clouds,dailyrainin,SolarRadiationWatts/m^2,SoftwareType,DateUTC
2013-01-20 00:02:00,68.0,56.0,-100.00,NNW,333,3.0,6.0,65,0.00,,,0.00,0.000000,,2013-01-20 10:02:00,
2013-01-20 00:12:00,68.0,56.0,-100.00,NNW,333,3.0,6.0,65,0.00,,,0.00,0.000000,,2013-01-20 10:12:00,
2013-01-20 00:22:00,68.0,56.0,-100.00,NNW,333,3.0,6.0,65,0.00,,,0.00,0.000000,,2013-01-20 10:22:00,
2013-01-20 00:32:00,68.0,56.0,-100.00,NNW,333,3.0,6.0,65,0.00,,,0.00,0.000000,,2013-01-20 10:32:00,
2013-01-20 00:42:00,68.0,56.0,-100.00,NNW,333,3.0,6.0,65,0.00,,,0.00,0.000000,,2013-01-20 10:42:00,
2013-01-20 01:02:00,69.0,50.0,-100.00,NNW,343,10.0,15.0,51,0.00,,,0.00,0.000000,,2013-01-20 11:02:00,
2013-01-20 01:12:00,69.0,50.0,-100.00,NNW,343,10.0,15.0,51,0.00,,,0.00,0.000000,,2013-01-20 11:12:00,
2013-01-20 01:22:00,69.0,50.0,-100.00,NNW,343,10.0,15.0,51,0.00,,,0.00,0.000000,,2013-01-20 11:22:00,
2013-01-20 01:32:00,69.0,50.0,-100.00,NNW,343,10.0,15.0,51,0.00,,,0.00,0.000000,,2013-01-20 11:32:00,
2013-01-20 01:42:00,69.0,50.0,-100.00,NNW,343,10.0,15.0,51,0.00,,,0.00,0.000000,,2013-01-20 11:42:00,
2013-01-20 02:03:00,70.0,50.0,-100.00,NNW,339,8.0,16.0,49,0.00,,,0.00,0.000000,,2013-01-20 12:03:00,
2013-01-20 02:22:00,70.0,50.0,-100.00,NNW,339,8.0,16.0,49,0.00,,,0.00,0.000000,,2013-01-20 12:22:00,
2013-01-20 02:33:00,70.0,50.0,-100.00,NNW,339,8.0,16.0,49,0.00,,,0.00,0.000000,,2013-01-20 12:33:00,
2013-01-20 02:42:00,70.0,50.0,-100.00,NNW,339,8.0,16.0,49,0.00,,,0.00,0.000000,,2013-01-20 12:42:00,
2013-01-20 03:12:00,69.0,48.0,-100.00,NNW,339,10.0,16.0,48,0.00,,,0.00,0.000000,,2013-01-20 13:12:00,
2013-01-20 03:23:00,69.0,48.0,-100.00,NNW,339,10.0,16.0,48,0.00,,,0.00,0.000000,,2013-01-20 13:23:00,
2013-01-20 03:33:00,69.0,48.0,-100.00,NNW,339,10.0,16.0,48,0.00,,,0.00,0.000000,,2013-01-20 13:33:00,
2013-01-20 03:42:00,69.0,48.0,-100.00,NNW,339,10.0,16.0,48,0.00,,,0.00,0.000000,,2013-01-20 13:42:00,
2013-01-20 04:12:00,68.0,53.0,-100.00,NNW,336,6.0,16.0,58,0.00,,,0.00,0.000000,,2013-01-20 14:12:00,
2013-01-20 04:22:00,68.0,53.0,-100.00,NNW,336,6.0,16.0,58,0.00,,,0.00,0.000000,,2013-01-20 14:22:00,
2013-01-20 04:32:00,68.0,53.0,-100.00,NNW,336,6.0,16.0,58,0.00,,,0.00,0.000000,,2013-01-20 14:32:00,
2013-01-20 04:42:00,68.0,53.0,-100.00,NNW,336,6.0,16.0,58,0.00,,,0.00,0.000000,,2013-01-20 14:42:00,
2013-01-20 05:12:00,69.0,55.0,-100.00,North,350,8.0,11.0,60,0.00,,,0.00,0.000000,,2013-01-20 15:12:00,
2013-01-20 05:22:00,69.0,55.0,-100.00,North,350,8.0,11.0,60,0.00,,,0.00,0.000000,,2013-01-20 15:22:00,
2013-01-20 05:33:00,69.0,55.0,-100.00,North,350,8.0,11.0,60,0.00,,,0.00,0.000000,,2013-01-20 15:33:00,
2013-01-20 05:42:00,69.0,55.0,-100.00,North,350,8.0,11.0,60,0.00,,,0.00,0.000000,,2013-01-20 15:42:00,
2013-01-20 06:02:00,69.0,50.0,-100.00,North,349,11.0,16.0,50,0.00,,,0.00,0.000000,,2013-01-20 16:02:00,
2013-01-20 06:12:00,69.0,50.0,-100.00,North,349,11.0,16.0,50,0.00,,,0.00,0.000000,,2013-01-20 16:12:00,
2013-01-20 06:22:00,69.0,50.0,-100.00,North,349,11.0,16.0,50,0.00,,,0.00,0.000000,,2013-01-20 16:22:00,
2013-01-20 06:32:00,69.0,50.0,-100.00,North,349,11.0,16.0,50,0.00,,,0.00,0.000000,,2013-01-20 16:32:00,
2013-01-20 06:42:00,69.0,50.0,-100.00,North,349,11.0,16.0,50,0.00,,,0.00,0.000000,,2013-01-20 16:42:00,
2013-01-20 07:03:00,70.0,45.0,-100.00,NNW,343,17.0,25.0,40,0.00,,,0.00,0.000000,,2013-01-20 17:03:00,
2013-01-20 07:12:00,70.0,45.0,-100.00,NNW,343,17.0,25.0,40,0.00,,,0.00,0.000000,,2013-01-20 17:12:00,
2013-01-20 07:22:00,70.0,45.0,-100.00,NNW,343,17.0,25.0,40,0.00,,,0.00,0.000000,,2013-01-20 17:22:00,
2013-01-20 07:32:00,70.0,45.0,-100.00,NNW,343,17.0,25.0,40,0.00,,,0.00,0.000000,,2013-01-20 17:32:00,
2013-01-20 07:42:00,70.0,45.0,-100.00,NNW,343,17.0,25.0,40,0.00,,,0.00,0.000000,,2013-01-20 17:42:00,
2013-01-20 08:02:00,72.0,48.0,-100.00,NNW,343,22.0,28.0,42,0.00,,,0.00,50.000000,,2013-01-20 18:02:00,
2013-01-20 08:12:00,72.0,48.0,-100.00,NNW,343,22.0,28.0,42,0.00,,,0.00,50.000000,,2013-01-20 18:12:00,
2013-01-20 08:23:00,72.0,48.0,-100.00,NNW,343,22.0,28.0,42,0.00,,,0.00,50.000000,,2013-01-20 18:23:00,
2013-01-20 08:33:00,72.0,48.0,-100.00,NNW,343,22.0,28.0,42,0.00,,,0.00,50.000000,,2013-01-20 18:33:00,
2013-01-20 08:42:00,72.0,48.0,-100.00,NNW,343,22.0,28.0,42,0.00,,,0.00,50.000000,,2013-01-20 18:42:00,
2013-01-20 09:02:00,75.0,50.0,-100.00,North,350,20.0,33.0,42,0.00,,,0.00,288.000000,,2013-01-20 19:02:00,
2013-01-20 09:12:00,75.0,50.0,-100.00,North,350,20.0,33.0,42,0.00,,,0.00,288.000000,,2013-01-20 19:12:00,
2013-01-20 09:22:00,75.0,50.0,-100.00,North,350,20.0,33.0,42,0.00,,,0.00,288.000000,,2013-01-20 19:22:00,
2013-01-20 09:33:00,75.0,50.0,-100.00,North,350,20.0,33.0,42,0.00,,,0.00,288.000000,,2013-01-20 19:33:00,
2013-01-20 09:42:00,75.0,50.0,-100.00,North,350,20.0,33.0,42,0.00,,,0.00,288.000000,,2013-01-20 19:42:00,
2013-01-20 10:02:00,78.0,54.0,-100.00,North,355,14.0,34.0,43,0.00,,,0.00,523.000000,,2013-01-20 20:02:00,
2013-01-20 10:12:00,78.0,54.0,-100.00,North,355,14.0,34.0,43,0.00,,,0.00,523.000000,,2013-01-20 20:12:00,
2013-01-20 10:22:00,78.0,54.0,-100.00,North,355,14.0,34.0,43,0.00,,,0.00,523.000000,,2013-01-20 20:22:00,
2013-01-20 10:33:00,78.0,54.0,-100.00,North,355,14.0,34.0,43,0.00,,,0.00,523.000000,,2013-01-20 20:33:00,
2013-01-20 10:42:00,78.0,54.0,-100.00,North,355,14.0,34.0,43,0.00,,,0.00,523.000000,,2013-01-20 20:42:00,
2013-01-20 11:03:00,80.0,52.0,-100.00,NNW,342,15.0,24.0,38,0.00,,,0.00,711.000000,,2013-01-20 21:03:00,
2013-01-20 11:13:00,80.0,52.0,-100.00,NNW,342,15.0,24.0,38,0.00,,,0.00,711.000000,,2013-01-20 21:13:00,
2013-01-20 11:22:00,80.0,52.0,-100.00,NNW,342,15.0,24.0,38,0.00,,,0.00,711.000000,,2013-01-20 21:22:00,
2013-01-20 11:33:00,80.0,52.0,-100.00,NNW,342,15.0,24.0,38,0.00,,,0.00,711.000000,,2013-01-20 21:33:00,
2013-01-20 11:42:00,80.0,52.0,-100.00,NNW,342,15.0,24.0,38,0.00,,,0.00,711.000000,,2013-01-20 21:42:00,
2013-01-20 12:03:00,81.0,58.0,-100.00,SW,214,8.0,25.0,45,0.00,,,0.00,851.000000,,2013-01-20 22:03:00,
2013-01-20 12:12:00,81.0,58.0,-100.00,SW,214,8.0,25.0,45,0.00,,,0.00,851.000000,,2013-01-20 22:12:00,
2013-01-20 12:22:00,81.0,58.0,-100.00,SW,214,8.0,25.0,45,0.00,,,0.00,851.000000,,2013-01-20 22:22:00,
2013-01-20 12:32:00,81.0,58.0,-100.00,SW,214,8.0,25.0,45,0.00,,,0.00,851.000000,,2013-01-20 22:32:00,
2013-01-20 12:42:00,81.0,58.0,-100.00,SW,214,8.0,25.0,45,0.00,,,0.00,851.000000,,2013-01-20 22:42:00,
2013-01-20 13:03:00,82.0,58.0,-100.00,SW,215,10.0,16.0,44,0.00,,,0.00,875.000000,,2013-01-20 23:03:00,
2013-01-20 13:12:00,82.0,58.0,-100.00,SW,215,10.0,16.0,44,0.00,,,0.00,875.000000,,2013-01-20 23:12:00,
2013-01-20 13:22:00,82.0,58.0,-100.00,SW,215,10.0,16.0,44,0.00,,,0.00,875.000000,,2013-01-20 23:22:00,
2013-01-20 13:33:00,82.0,58.0,-100.00,SW,215,10.0,16.0,44,0.00,,,0.00,875.000000,,2013-01-20 23:33:00,
2013-01-20 13:42:00,82.0,58.0,-100.00,SW,215,10.0,16.0,44,0.00,,,0.00,875.000000,,2013-01-20 23:42:00,
2013-01-20 14:03:00,78.0,54.0,-100.00,SSW,194,6.0,14.0,43,0.00,,,0.00,769.000000,,2013-01-21 00:03:00,
2013-01-20 14:13:00,78.0,54.0,-100.00,SSW,194,6.0,14.0,43,0.00,,,0.00,769.000000,,2013-01-21 00:13:00,
2013-01-20 14:22:00,78.0,54.0,-100.00,SSW,194,6.0,14.0,43,0.00,,,0.00,769.000000,,2013-01-21 00:22:00,
2013-01-20 14:32:00,78.0,54.0,-100.00,SSW,194,6.0,14.0,43,0.00,,,0.00,769.000000,,2013-01-21 00:32:00,
2013-01-20 14:42:00,78.0,54.0,-100.00,SSW,194,6.0,14.0,43,0.00,,,0.00,769.000000,,2013-01-21 00:42:00,
2013-01-20 15:03:00,77.0,55.0,-100.00,SSW,207,6.0,10.0,46,0.00,,,0.00,226.000000,,2013-01-21 01:03:00,
2013-01-20 15:12:00,77.0,55.0,-100.00,SSW,207,6.0,10.0,46,0.00,,,0.00,226.000000,,2013-01-21 01:12:00,
2013-01-20 15:22:00,77.0,55.0,-100.00,SSW,207,6.0,10.0,46,0.00,,,0.00,226.000000,,2013-01-21 01:22:00,
2013-01-20 15:32:00,77.0,55.0,-100.00,SSW,207,6.0,10.0,46,0.00,,,0.00,226.000000,,2013-01-21 01:32:00,
2013-01-20 15:42:00,77.0,55.0,-100.00,SSW,207,6.0,10.0,46,0.00,,,0.00,226.000000,,2013-01-21 01:42:00,
2013-01-20 16:03:00,78.0,58.0,-100.00,SW,231,5.0,9.0,50,0.00,,,0.00,199.000000,,2013-01-21 02:03:00,
2013-01-20 16:12:00,78.0,58.0,-100.00,SW,231,5.0,9.0,50,0.00,,,0.00,199.000000,,2013-01-21 02:12:00,
2013-01-20 16:22:00,78.0,58.0,-100.00,SW,231,5.0,9.0,50,0.00,,,0.00,199.000000,,2013-01-21 02:22:00,
2013-01-20 16:33:00,78.0,58.0,-100.00,SW,231,5.0,9.0,50,0.00,,,0.00,199.000000,,2013-01-21 02:33:00,
2013-01-20 16:42:00,78.0,58.0,-100.00,SW,231,5.0,9.0,50,0.00,,,0.00,199.000000,,2013-01-21 02:42:00,
2013-01-20 17:02:00,76.0,55.0,-100.00,NNW,347,15.0,21.0,48,0.00,,,0.00,98.000000,,2013-01-21 03:02:00,
2013-01-20 17:12:00,76.0,55.0,-100.00,NNW,347,15.0,21.0,48,0.00,,,0.00,98.000000,,2013-01-21 03:12:00,
2013-01-20 17:23:00,76.0,55.0,-100.00,NNW,347,15.0,21.0,48,0.00,,,0.00,98.000000,,2013-01-21 03:23:00,
2013-01-20 17:32:00,76.0,55.0,-100.00,NNW,347,15.0,21.0,48,0.00,,,0.00,98.000000,,2013-01-21 03:32:00,
2013-01-20 17:42:00,76.0,55.0,-100.00,NNW,347,15.0,21.0,48,0.00,,,0.00,98.000000,,2013-01-21 03:42:00,
2013-01-20 18:02:00,74.0,55.0,-100.00,North,354,13.0,23.0,52,0.00,,,0.00,39.000000,,2013-01-21 04:02:00,
2013-01-20 18:12:00,74.0,55.0,-100.00,North,354,13.0,23.0,52,0.00,,,0.00,39.000000,,2013-01-21 04:12:00,
2013-01-20 18:22:00,74.0,55.0,-100.00,North,354,13.0,23.0,52,0.00,,,0.00,39.000000,,2013-01-21 04:22:00,
2013-01-20 18:32:00,74.0,55.0,-100.00,North,354,13.0,23.0,52,0.00,,,0.00,39.000000,,2013-01-21 04:32:00,
2013-01-20 18:42:00,74.0,55.0,-100.00,North,354,13.0,23.0,52,0.00,,,0.00,39.000000,,2013-01-21 04:42:00,
2013-01-20 19:03:00,72.0,55.0,-100.00,North,352,17.0,25.0,56,0.00,,,0.00,4.000000,,2013-01-21 05:03:00,
2013-01-20 19:12:00,72.0,55.0,-100.00,North,352,17.0,25.0,56,0.00,,,0.00,4.000000,,2013-01-21 05:12:00,
2013-01-20 19:22:00,72.0,55.0,-100.00,North,352,17.0,25.0,56,0.00,,,0.00,4.000000,,2013-01-21 05:22:00,
2013-01-20 19:33:00,72.0,55.0,-100.00,North,352,17.0,25.0,56,0.00,,,0.00,4.000000,,2013-01-21 05:33:00,
2013-01-20 19:42:00,72.0,55.0,-100.00,North,352,17.0,25.0,56,0.00,,,0.00,4.000000,,2013-01-21 05:42:00,
2013-01-20 20:12:00,72.0,55.0,-100.00,NNW,348,17.0,26.0,55,0.00,,,0.00,0.000000,,2013-01-21 06:12:00,
2013-01-20 20:23:00,72.0,55.0,-100.00,NNW,348,17.0,26.0,55,0.00,,,0.00,0.000000,,2013-01-21 06:23:00,
2013-01-20 20:32:00,72.0,55.0,-100.00,NNW,348,17.0,26.0,55,0.00,,,0.00,0.000000,,2013-01-21 06:32:00,
2013-01-20 20:43:00,72.0,55.0,-100.00,NNW,348,17.0,26.0,55,0.00,,,0.00,0.000000,,2013-01-21 06:43:00,
2013-01-20 21:03:00,70.0,53.0,-100.00,NNW,339,17.0,28.0,54,0.00,,,0.00,0.000000,,2013-01-21 07:03:00,
2013-01-20 21:12:00,70.0,53.0,-100.00,NNW,339,17.0,28.0,54,0.00,,,0.00,0.000000,,2013-01-21 07:12:00,
2013-01-20 21:22:00,70.0,53.0,-100.00,NNW,339,17.0,28.0,54,0.00,,,0.00,0.000000,,2013-01-21 07:22:00,
2013-01-20 21:32:00,70.0,53.0,-100.00,NNW,339,17.0,28.0,54,0.00,,,0.00,0.000000,,2013-01-21 07:32:00,
2013-01-20 21:42:00,70.0,53.0,-100.00,NNW,339,17.0,28.0,54,0.00,,,0.00,0.000000,,2013-01-21 07:42:00,
2013-01-20 22:02:00,69.0,53.0,-100.00,North,352,11.0,26.0,56,0.00,,,-99.99,0.000000,,2013-01-21 08:02:00,
2013-01-20 22:13:00,69.0,53.0,-100.00,North,352,11.0,26.0,56,0.00,,,-99.99,0.000000,,2013-01-21 08:13:00,
2013-01-20 22:22:00,69.0,53.0,-100.00,North,352,11.0,26.0,56,0.00,,,-99.99,0.000000,,2013-01-21 08:22:00,
2013-01-20 22:32:00,69.0,53.0,-100.00,North,352,11.0,26.0,56,0.00,,,-99.99,0.000000,,2013-01-21 08:32:00,
2013-01-20 22:42:00,69.0,53.0,-100.00,North,352,11.0,26.0,56,0.00,,,-99.99,0.000000,,2013-01-21 08:42:00,
2013-01-20 23:02:00,69.0,52.0,-100.00,SSW,196,7.0,29.0,54,0.00,,,0.00,0.000000,,2013-01-21 09:02:00,
2013-01-20 23:12:00,69.0,52.0,-100.00,SSW,196,7.0,29.0,54,0.00,,,0.00,0.000000,,2013-01-21 09:12:00,
2013-01-20 23:22:00,69.0,52.0,-100.00,SSW,196,7.0,29.0,54,0.00,,,0.00,0.000000,,2013-01-21 09:22:00,
2013-01-20 23:32:00,69.0,52.0,-100.00,SSW,196,7.0,29.0,54,0.00,,,0.00,0.000000,,2013-01-21 09:32:00,
2013-01-20 23:42:00,69.0,52.0,-100.00,SSW,196,7.0,29.0,54,0.00,,,0.00,0.000000,,2013-01-21 09:42:00,